Ludington, MI

9:29 PM EDT on October 16, 2019 (GMT -0400)
Mason County

Weather History for KLDM - September, 2019

Change the Weather History Date:

Friday, September 20, 2019

  Actual Average Record
Temperature  
Mean Temperature 66 °F -  
Max Temperature 77 °F 70 °F 84 °F (2017)
Min Temperature 56 °F 48 °F 31 °F (1979)
Cooling Degree Days 2    
Growing Degree Days 16 (Base 50)    
Moisture  
Dew Point 61 °F    
Average Humidity 83    
Maximum Humidity 96    
Minimum Humidity 58    
Precipitation  
Precipitation 0.00 in - - ()
Sea Level Pressure  
Sea Level Pressure 30.11 in    
Wind  
Wind Speed 2 mph (West)    
Max Wind Speed 7 mph    
Max Gust Speed -    
Visibility 7 miles    
Events Fog    
Averages and records for this station are not official NWS values.
T = Trace of Precipitation, MM = Missing Value Source: NWS Daily Summary

Daily Weather History Graph

Daily Weather History Graph

Search for Another Location

Airport or City:

Astronomy

Sep. 20, 2019 Rise Set
Actual Time 7:30 AM EDT 7:47 PM EDT
Civil Twilight 7:01 AM EDT 8:15 PM EDT
Nautical Twilight 6:27 AM EDT 8:49 PM EDT
Astronomical Twilight 5:52 AM EDT 9:24 PM EDT
Moon 11:24 PM EDT (9/20) 1:46 PM EDT (9/20)
Length of Visible Light 13h 14m
Length of Day
12h 16m
Waning Gibbous, 65% of the Moon is Illuminated
Sep 20
Waning Gibbous
Sep 21
Last Quarter
Sep 28
New
Oct 5
First Quarter
Oct 13
Full

Hourly Weather History & Observations

Time (EDT) Temp. Dew Point Humidity Pressure Visibility Wind Dir Wind Speed Gust Speed Precip Events Conditions
12:15 AM 63.7 °F 62.4 °F 96% 30.08 in 10.0 mi North 3.5 mph - N/A   Scattered Clouds
12:16 AM 63.7 °F 62.4 °F 96% 30.08 in 10.0 mi North 3.5 mph - N/A   Scattered Clouds
12:35 AM 64.6 °F 63.3 °F 96% 30.09 in 10.0 mi North 5.8 mph - N/A   Scattered Clouds
12:59 AM 64.8 °F 63.5 °F 96% 30.09 in 10.0 mi North 3.5 mph - N/A   Mostly Cloudy
1:17 AM 64.6 °F 63.1 °F 95% 30.09 in 10.0 mi Calm Calm - N/A   Overcast
1:35 AM 64.4 °F 62.8 °F 94% 30.09 in 10.0 mi Calm Calm - N/A   Overcast
1:36 AM 64.4 °F 62.8 °F 94% 30.09 in 10.0 mi Calm Calm - N/A   Overcast
1:55 AM 64.4 °F 62.8 °F 94% 30.10 in 10.0 mi Calm Calm - N/A   Scattered Clouds
2:15 AM 63.3 °F 62.1 °F 96% 30.10 in 10.0 mi Calm Calm - N/A   Clear
2:38 AM 63.3 °F 62.1 °F 96% 30.10 in 10.0 mi Calm Calm - N/A   Clear
2:56 AM 62.6 °F 61.3 °F 96% 30.10 in 7.0 mi Calm Calm - N/A   Clear
3:15 AM 62.6 °F 61.3 °F 96% 30.10 in 2.5 mi Calm Calm - N/A   Clear
3:16 AM 62.6 °F 61.3 °F 96% 30.10 in 2.5 mi Calm Calm - N/A   Clear
3:35 AM 62.1 °F 61.0 °F 96% 30.10 in 10.0 mi Calm Calm - N/A   Scattered Clouds
3:59 AM 61.9 °F 60.6 °F 96% 30.10 in 7.0 mi Calm Calm - N/A   Scattered Clouds
4:17 AM 61.2 °F 59.9 °F 96% 30.10 in 0.8 mi Calm Calm - N/A   Mist
4:35 AM 60.6 °F 59.2 °F 95% 30.10 in 0.5 mi Calm Calm - N/A Fog Fog
4:36 AM 60.6 °F 59.2 °F 95% 30.10 in 0.8 mi Calm Calm - N/A   Mist
4:55 AM 60.1 °F 58.8 °F 96% 30.10 in 0.5 mi Calm Calm - N/A Fog Fog
4:56 AM 59.9 °F 58.6 °F 96% 30.10 in 0.5 mi Calm Calm - N/A Fog Fog
5:15 AM 59.5 °F 58.3 °F 96% 30.11 in 0.5 mi Calm Calm - N/A Fog Fog
5:20 AM 59.9 °F 58.6 °F 96% 30.11 in 0.5 mi Calm Calm - N/A Fog Fog
5:38 AM 58.3 °F 57.0 °F 96% 30.11 in 0.2 mi Calm Calm - N/A Fog Fog
5:56 AM 58.6 °F 57.4 °F 96% 30.11 in 2.0 mi Calm Calm - N/A   Mostly Cloudy
6:15 AM 58.3 °F 57.0 °F 96% 30.11 in 0.5 mi Calm Calm - N/A Fog Fog
6:16 AM 57.9 °F 56.7 °F 96% 30.11 in 0.8 mi Calm Calm - N/A   Mostly Cloudy
6:35 AM 56.7 °F 55.6 °F 96% 30.11 in 1.5 mi Calm Calm - N/A   Mist
6:36 AM 56.8 °F 55.6 °F 96% 30.11 in 1.5 mi Calm Calm - N/A   Mist
6:59 AM 57.9 °F 56.8 °F 96% 30.11 in 0.8 mi Calm Calm - N/A   Scattered Clouds
7:17 AM 57.9 °F 56.8 °F 96% 30.11 in 5.0 mi Calm Calm - N/A   Scattered Clouds
7:35 AM 57.0 °F 55.8 °F 96% 30.12 in 0.2 mi Calm Calm - N/A Fog Fog
7:55 AM 59.0 °F 57.7 °F 96% 30.12 in 0.5 mi Calm Calm - N/A Fog Fog
8:15 AM 59.9 °F 58.6 °F 96% 30.12 in 2.5 mi Calm Calm - N/A   Clear
8:38 AM 62.4 °F 61.0 °F 95% 30.13 in 7.0 mi Calm Calm - N/A   Clear
8:56 AM 63.5 °F 62.1 °F 95% 30.13 in 10.0 mi Calm Calm - N/A   Clear
9:15 AM 64.9 °F 63.3 °F 94% 30.13 in 10.0 mi Calm Calm - N/A   Clear
9:35 AM 66.6 °F 62.2 °F 86% 30.14 in 10.0 mi Calm Calm - N/A   Clear
9:59 AM 69.4 °F 62.8 °F 79% 30.14 in 10.0 mi Calm Calm - N/A   Clear
10:17 AM 70.7 °F 62.8 °F 76% 30.14 in 10.0 mi Calm Calm - N/A   Clear
10:35 AM 72.5 °F 61.9 °F 69% 30.14 in 10.0 mi Calm Calm - N/A   Clear
10:36 AM 72.7 °F 62.2 °F 70% 30.14 in 10.0 mi Calm Calm - N/A   Clear
10:55 AM 73.4 °F 62.1 °F 68% 30.14 in 10.0 mi Calm Calm - N/A   Clear
10:56 AM 73.4 °F 62.2 °F 68% 30.14 in 10.0 mi Calm Calm - N/A   Clear
11:15 AM 75.4 °F 63.0 °F 65% 30.14 in 10.0 mi Calm Calm - N/A   Clear
11:38 AM 75.4 °F 63.3 °F 66% 30.14 in 10.0 mi Calm Calm - N/A   Clear
11:56 AM 76.1 °F 63.5 °F 65% 30.14 in 10.0 mi Calm Calm - N/A   Clear
12:15 PM 77.0 °F 64.0 °F 64% 30.13 in 10.0 mi West 4.6 mph - N/A   Clear
12:16 PM 77.0 °F 64.0 °F 64% 30.13 in 10.0 mi West 5.8 mph - N/A   Clear
12:35 PM 75.9 °F 64.0 °F 67% 30.13 in 10.0 mi West 5.8 mph - N/A   Scattered Clouds
12:36 PM 75.9 °F 64.0 °F 67% 30.13 in 10.0 mi WSW 5.8 mph - N/A   Mostly Cloudy
12:59 PM 75.0 °F 63.9 °F 68% 30.12 in 10.0 mi West 6.9 mph - N/A   Scattered Clouds
1:17 PM 75.4 °F 64.0 °F 68% 30.12 in 10.0 mi West 4.6 mph - N/A   Clear
1:35 PM 76.1 °F 64.0 °F 66% 30.12 in 10.0 mi WSW 5.8 mph - N/A   Clear
1:36 PM 75.9 °F 64.0 °F 67% 30.12 in 10.0 mi WSW 4.6 mph - N/A   Clear
1:55 PM 75.2 °F 63.1 °F 66% 30.12 in 10.0 mi West 5.8 mph - N/A   Clear
1:56 PM 75.2 °F 63.1 °F 66% 30.12 in 10.0 mi West 6.9 mph - N/A   Clear
2:15 PM 75.4 °F 64.0 °F 68% 30.11 in 10.0 mi West 5.8 mph - N/A   Clear
2:38 PM 75.4 °F 63.7 °F 67% 30.10 in 10.0 mi West 5.8 mph - N/A   Clear
2:56 PM 75.6 °F 63.7 °F 66% 30.10 in 10.0 mi WSW 6.9 mph - N/A   Clear
3:15 PM 74.1 °F 63.7 °F 70% 30.10 in 10.0 mi WSW 6.9 mph - N/A   Clear
3:16 PM 74.1 °F 64.0 °F 71% 30.10 in 10.0 mi WSW 6.9 mph - N/A   Clear
3:35 PM 74.7 °F 62.6 °F 66% 30.10 in 10.0 mi West 5.8 mph - N/A   Clear
3:59 PM 74.3 °F 62.2 °F 66% 30.11 in 10.0 mi WSW 5.8 mph - N/A   Clear
4:17 PM 75.6 °F 62.8 °F 64% 30.11 in 10.0 mi WSW 4.6 mph - N/A   Clear
4:35 PM 75.4 °F 61.7 °F 62% 30.10 in 10.0 mi WSW 4.6 mph - N/A   Clear
4:36 PM 75.4 °F 61.7 °F 62% 30.10 in 10.0 mi WSW 4.6 mph - N/A   Clear
4:55 PM 75.2 °F 60.4 °F 60% 30.10 in 10.0 mi SW 6.9 mph - N/A   Clear
5:15 PM 75.0 °F 60.4 °F 60% 30.11 in 10.0 mi SW 5.8 mph - N/A   Clear
5:38 PM 75.2 °F 59.9 °F 59% 30.11 in 10.0 mi WSW 5.8 mph - N/A   Clear
5:56 PM 74.7 °F 59.0 °F 58% 30.11 in 10.0 mi Calm Calm - N/A   Clear
6:15 PM 73.9 °F 60.8 °F 63% 30.12 in 10.0 mi NW 4.6 mph - N/A   Clear
6:35 PM 73.4 °F 60.6 °F 64% 30.12 in 10.0 mi NW 3.5 mph - N/A   Clear
6:59 PM 71.2 °F 61.9 °F 72% 30.12 in 10.0 mi Calm Calm - N/A   Clear
7:17 PM 68.7 °F 63.0 °F 82% 30.11 in 10.0 mi Calm Calm - N/A   Clear
7:35 PM 67.6 °F 62.8 °F 84% 30.11 in 10.0 mi Calm Calm - N/A   Clear
7:55 PM 66.4 °F 62.4 °F 87% 30.11 in 10.0 mi Calm Calm - N/A   Clear
8:15 PM 64.0 °F 61.5 °F 91% 30.11 in 5.0 mi Calm Calm - N/A   Clear
8:20 PM 64.2 °F 61.7 °F 91% 30.11 in 3.0 mi Calm Calm - N/A   Clear
8:38 PM 63.3 °F 61.7 °F 94% 30.11 in 10.0 mi Calm Calm - N/A   Clear
8:56 PM 63.7 °F 61.7 °F 93% 30.11 in 10.0 mi Calm Calm - N/A   Clear
9:15 PM 63.3 °F 61.9 °F 95% 30.12 in 10.0 mi Calm Calm - N/A   Clear
9:35 PM 63.5 °F 62.1 °F 95% 30.12 in 10.0 mi Calm Calm - N/A   Clear
9:59 PM 61.3 °F 60.1 °F 96% 30.12 in 7.0 mi Calm Calm - N/A   Clear
10:17 PM 60.8 °F 59.5 °F 96% 30.12 in 5.0 mi Calm Calm - N/A   Clear
10:35 PM 61.2 °F 59.9 °F 96% 30.12 in 7.0 mi Calm Calm - N/A   Clear
10:55 PM 60.8 °F 59.5 °F 96% 30.12 in 7.0 mi Calm Calm - N/A   Clear
11:15 PM 61.0 °F 59.9 °F 96% 30.12 in 7.0 mi Calm Calm - N/A   Clear
11:38 PM 59.7 °F 58.5 °F 96% 30.12 in 5.0 mi Calm Calm - N/A   Clear
11:56 PM 60.8 °F 59.4 °F 95% 30.12 in 0.8 mi Calm Calm - N/A   Mist